createdAt,value
2022-10-23T00:01:48.164Z,57.02
2022-10-23T00:06:50.648Z,56.71
2022-10-23T00:11:53.127Z,56.37
2022-10-23T00:16:55.003Z,56.26
2022-10-23T00:21:56.812Z,56.28
2022-10-23T00:26:58.610Z,56.06
2022-10-23T00:32:00.467Z,55.76
2022-10-23T00:37:02.357Z,55.79
2022-10-23T00:42:04.318Z,56.10
2022-10-23T00:47:06.109Z,56.61
2022-10-23T00:52:11.971Z,56.77
2022-10-23T00:57:15.798Z,56.81
2022-10-23T01:02:17.911Z,56.84
2022-10-23T01:07:33.700Z,56.83
2022-10-23T01:12:46.849Z,57.20
2022-10-23T01:18:10.228Z,56.99
2022-10-23T01:23:22.547Z,57.15
2022-10-23T01:28:41.185Z,56.85
2022-10-23T01:33:47.621Z,57.39
2022-10-23T01:38:56.242Z,57.17
2022-10-23T01:43:59.349Z,57.04
2022-10-23T01:49:09.425Z,57.25
2022-10-23T01:54:14.676Z,57.28
2022-10-23T01:59:32.424Z,57.78
2022-10-23T02:04:39.659Z,57.97
2022-10-23T02:09:41.780Z,58.20
2022-10-23T02:15:09.709Z,57.94
2022-10-23T02:20:11.678Z,57.77
2022-10-23T02:25:19.075Z,57.78
2022-10-23T02:30:23.566Z,57.50
2022-10-23T02:35:42.078Z,57.30
2022-10-23T02:41:01.256Z,57.37
2022-10-23T02:46:17.786Z,57.28
2022-10-23T02:51:29.095Z,57.59
2022-10-23T02:56:41.198Z,57.61
2022-10-23T03:01:53.525Z,58.04
2022-10-23T03:06:57.044Z,58.04
2022-10-23T03:11:58.863Z,57.89
2022-10-23T03:17:00.717Z,58.02
2022-10-23T03:22:02.824Z,58.17
2022-10-23T03:27:04.701Z,57.91
2022-10-23T03:32:07.723Z,58.03
2022-10-23T03:37:10.023Z,57.79
2022-10-23T03:42:12.188Z,57.72
2022-10-23T03:47:14.172Z,57.75
2022-10-23T03:52:16.956Z,57.61
2022-10-23T03:57:18.828Z,57.28
2022-10-23T04:02:22.017Z,57.12
2022-10-23T04:07:24.083Z,56.95
2022-10-23T04:12:25.983Z,57.04
2022-10-23T04:22:34.675Z,56.74
2022-10-23T04:27:36.668Z,56.71
2022-10-23T04:32:38.588Z,56.76
2022-10-23T04:37:40.514Z,57.03
2022-10-23T04:42:42.991Z,56.74
2022-10-23T04:47:45.025Z,57.05
2022-10-23T04:52:48.171Z,56.77
2022-10-23T04:58:15.862Z,56.74
2022-10-23T05:03:19.843Z,56.70
2022-10-23T05:08:22.946Z,56.97
2022-10-23T05:13:46.229Z,56.91
2022-10-23T05:18:49.154Z,57.52
2022-10-23T05:23:51.097Z,57.26
2022-10-23T05:28:53.004Z,57.48
2022-10-23T05:33:56.509Z,57.32
2022-10-23T05:38:59.152Z,57.21
2022-10-23T05:44:01.648Z,57.40
2022-10-23T05:49:24.780Z,57.14
2022-10-23T05:54:46.833Z,57.28
2022-10-23T05:59:55.884Z,57.18
2022-10-23T06:05:00.553Z,57.17
2022-10-23T06:10:22.602Z,56.92
2022-10-23T06:15:26.801Z,57.01
2022-10-23T06:20:48.150Z,57.06
2022-10-23T06:25:58.465Z,57.14
2022-10-23T06:31:11.031Z,56.92
2022-10-23T06:36:13.077Z,56.79
2022-10-23T06:41:19.594Z,56.99
2022-10-23T06:46:32.879Z,57.28
2022-10-23T06:51:53.111Z,56.83
2022-10-23T06:56:56.922Z,56.84
2022-10-23T07:02:09.773Z,56.83
2022-10-23T07:07:12.637Z,56.73
2022-10-23T07:12:20.131Z,56.44
2022-10-23T07:17:29.108Z,56.22
2022-10-23T07:22:31.043Z,56.03
2022-10-23T07:27:41.486Z,55.74
2022-10-23T07:32:45.299Z,55.65
2022-10-23T07:37:47.054Z,55.35
2022-10-23T07:42:49.264Z,55.12
2022-10-23T07:47:53.254Z,55.03
2022-10-23T07:52:59.158Z,54.82
2022-10-23T07:58:11.237Z,54.63
2022-10-23T08:03:18.681Z,54.57
2022-10-23T08:08:22.893Z,54.68
2022-10-23T08:13:26.735Z,54.28
2022-10-23T08:18:35.766Z,54.33
2022-10-23T08:23:38.254Z,54.36
2022-10-23T08:28:40.349Z,54.30
2022-10-23T08:33:43.104Z,53.93
2022-10-23T08:38:45.483Z,53.85
2022-10-23T08:44:03.063Z,53.75
2022-10-23T08:49:34.823Z,53.62
2022-10-23T08:54:45.552Z,53.53
2022-10-23T08:59:52.904Z,53.51
2022-10-23T09:04:57.426Z,53.63
2022-10-23T09:10:34.608Z,53.42
2022-10-23T09:15:44.902Z,53.37
2022-10-23T09:20:47.107Z,53.12
2022-10-23T09:25:55.467Z,53.17
2022-10-23T09:31:08.078Z,52.95
2022-10-23T09:36:13.947Z,52.94
2022-10-23T09:41:30.478Z,52.94
2022-10-23T09:46:54.091Z,52.78
2022-10-23T09:52:04.507Z,52.51
2022-10-23T09:57:28.756Z,52.58
2022-10-23T10:02:33.560Z,52.33
2022-10-23T10:07:36.722Z,52.37
2022-10-23T10:12:58.382Z,52.13
2022-10-23T10:18:24.715Z,52.12
2022-10-23T10:24:04.326Z,52.16
2022-10-23T10:29:38.640Z,52.24
2022-10-23T10:34:58.521Z,52.33
2022-10-23T10:40:22.442Z,52.14
2022-10-23T10:45:44.619Z,51.86
2022-10-23T10:51:01.660Z,51.73
2022-10-23T10:56:19.433Z,51.42
2022-10-23T11:01:43.608Z,50.97
2022-10-23T11:06:49.190Z,50.66
2022-10-23T11:11:51.260Z,50.65
2022-10-23T11:17:09.823Z,50.55
2022-10-23T11:22:11.564Z,50.79
2022-10-23T11:27:38.134Z,50.64
2022-10-23T11:33:08.936Z,50.50
2022-10-23T11:38:13.584Z,50.47
2022-10-23T11:43:30.839Z,50.23
2022-10-23T11:48:41.577Z,50.16
2022-10-23T11:53:43.380Z,50.08
2022-10-23T11:58:48.840Z,49.90
2022-10-23T12:04:18.736Z,49.88
2022-10-23T12:09:42.291Z,49.82
2022-10-23T12:14:50.449Z,49.88
2022-10-23T12:19:55.094Z,50.10
2022-10-23T12:25:13.733Z,50.24
2022-10-23T12:30:43.348Z,50.02
2022-10-23T12:35:57.364Z,50.01
2022-10-23T12:41:18.040Z,49.75
2022-10-23T12:46:34.381Z,49.85
2022-10-23T12:51:38.534Z,49.76
2022-10-23T12:56:40.421Z,49.21
2022-10-23T13:01:43.468Z,48.86
2022-10-23T13:06:47.720Z,48.43
2022-10-23T13:11:52.192Z,48.10
2022-10-23T13:17:08.622Z,47.85
2022-10-23T13:22:21.914Z,47.49
2022-10-23T13:27:33.363Z,47.29
2022-10-23T13:32:35.297Z,47.30
2022-10-23T13:37:38.219Z,47.17
2022-10-23T13:42:40.176Z,46.96
2022-10-23T13:47:42.309Z,46.45
2022-10-23T13:52:44.669Z,46.06
2022-10-23T13:57:46.700Z,45.67
2022-10-23T14:02:48.784Z,45.56
2022-10-23T14:07:50.632Z,45.73
2022-10-23T14:12:55.210Z,45.93
2022-10-23T14:17:59.508Z,46.02
2022-10-23T14:23:03.361Z,46.29
2022-10-23T14:28:05.695Z,46.49
2022-10-23T14:33:07.579Z,46.64
2022-10-23T14:38:09.563Z,46.61
2022-10-23T14:43:11.388Z,46.81
2022-10-23T14:48:13.450Z,46.87
2022-10-23T14:53:16.367Z,46.86
2022-10-23T14:58:18.183Z,47.14
2022-10-23T15:03:21.322Z,47.05
2022-10-23T15:08:24.099Z,47.23
2022-10-23T15:13:25.927Z,47.45
2022-10-23T15:18:27.837Z,47.65
2022-10-23T15:23:29.857Z,48.09
2022-10-23T15:28:32.694Z,47.99
2022-10-23T15:33:34.553Z,48.21
2022-10-23T15:38:36.464Z,48.08
2022-10-23T15:43:38.799Z,48.31
2022-10-23T15:48:40.998Z,48.25
2022-10-23T15:53:43.000Z,48.45
2022-10-23T15:58:44.942Z,48.36
2022-10-23T16:03:47.044Z,48.61
2022-10-23T16:08:49.061Z,48.70
2022-10-23T16:13:51.254Z,48.84
2022-10-23T16:18:53.385Z,49.02
2022-10-23T16:23:57.562Z,49.43
2022-10-23T16:29:02.913Z,49.24
2022-10-23T16:34:05.613Z,49.61
2022-10-23T16:39:10.177Z,49.83
2022-10-23T16:44:30.849Z,49.83
2022-10-23T16:49:34.590Z,50.01
2022-10-23T16:54:36.574Z,50.15
2022-10-23T16:59:38.584Z,50.22
2022-10-23T17:04:40.428Z,50.23
2022-10-23T17:09:44.669Z,49.89
2022-10-23T17:14:46.498Z,50.05
2022-10-23T17:19:48.285Z,50.27
2022-10-23T17:24:53.764Z,50.39
2022-10-23T17:29:55.987Z,50.48
2022-10-23T17:34:57.887Z,50.57
2022-10-23T17:40:02.651Z,50.91
2022-10-23T17:45:04.837Z,51.14
2022-10-23T17:50:09.560Z,51.31
2022-10-23T17:55:11.518Z,51.34
2022-10-23T18:00:13.539Z,51.37
2022-10-23T18:05:15.341Z,51.29
2022-10-23T18:10:17.194Z,51.18
2022-10-23T18:15:19.714Z,51.43
2022-10-23T18:20:21.974Z,51.71
2022-10-23T18:25:24.056Z,51.87
2022-10-23T18:30:26.426Z,51.75
2022-10-23T18:35:28.747Z,51.26
2022-10-23T18:40:32.349Z,51.30
2022-10-23T18:45:34.926Z,51.31
2022-10-23T18:50:38.388Z,50.86
2022-10-23T18:55:51.216Z,50.49
2022-10-23T19:00:53.536Z,50.41
2022-10-23T19:05:55.595Z,50.67
2022-10-23T19:11:00.326Z,50.78
2022-10-23T19:16:02.895Z,51.10
2022-10-23T19:21:06.307Z,51.18
2022-10-23T19:26:10.591Z,51.29
2022-10-23T19:31:13.343Z,51.16
2022-10-23T19:36:16.725Z,51.35
2022-10-23T19:41:20.694Z,51.50
2022-10-23T19:46:22.879Z,51.47
2022-10-23T19:51:25.122Z,51.55
2022-10-23T19:56:27.169Z,51.38
2022-10-23T20:01:29.268Z,51.34
2022-10-23T20:06:36.593Z,51.46
2022-10-23T20:11:40.000Z,51.49
2022-10-23T20:16:44.982Z,51.44
2022-10-23T20:21:48.570Z,51.50
2022-10-23T20:26:53.436Z,51.48
2022-10-23T20:31:55.311Z,51.37
2022-10-23T20:36:57.268Z,51.29
2022-10-23T20:42:00.371Z,51.26
2022-10-23T20:47:02.301Z,51.20
2022-10-23T20:52:04.358Z,51.00
2022-10-23T20:57:06.176Z,51.32
2022-10-23T21:02:08.090Z,51.57
2022-10-23T21:07:11.285Z,51.57
2022-10-23T21:12:13.589Z,51.57
2022-10-23T21:17:17.703Z,51.67
2022-10-23T21:22:19.642Z,51.65
2022-10-23T21:27:21.459Z,52.12
2022-10-23T21:32:23.259Z,52.24
2022-10-23T21:37:25.994Z,51.90
2022-10-23T21:47:34.958Z,52.45
2022-10-23T21:52:36.828Z,53.38
2022-10-23T21:57:38.667Z,53.84
2022-10-23T22:02:40.759Z,54.27
2022-10-23T22:07:47.558Z,54.37
2022-10-23T22:12:49.367Z,54.69
2022-10-23T22:17:51.171Z,54.86
2022-10-23T22:22:53.024Z,55.01
2022-10-23T22:27:54.861Z,55.25
2022-10-23T22:32:56.676Z,55.00
2022-10-23T22:37:58.518Z,54.72
2022-10-23T22:43:00.300Z,54.54
2022-10-23T22:48:02.059Z,54.52
2022-10-23T22:53:03.821Z,54.75
2022-10-23T22:58:05.612Z,54.99
2022-10-23T23:03:07.706Z,55.03
2022-10-23T23:08:09.810Z,55.19
2022-10-23T23:13:11.684Z,55.36
2022-10-23T23:18:13.685Z,55.69
2022-10-23T23:23:15.791Z,55.51
2022-10-23T23:28:20.178Z,55.78
2022-10-23T23:33:23.967Z,55.94
2022-10-23T23:38:26.087Z,55.78
2022-10-23T23:43:28.056Z,56.04
2022-10-23T23:48:29.855Z,55.89
2022-10-23T23:53:31.938Z,55.87
2022-10-23T23:58:33.788Z,55.92
